sensor_id;sensor_type;location;lat;lon;timestamp;temperature;humidity
64715;DHT22;51144;53.002;6.506;2023-05-06T00:01:57;12.70;99.90
64715;DHT22;51144;53.002;6.506;2023-05-06T00:04:22;12.60;99.90
64715;DHT22;51144;53.002;6.506;2023-05-06T00:06:48;12.50;99.90
64715;DHT22;51144;53.002;6.506;2023-05-06T00:09:14;12.50;99.90
64715;DHT22;51144;53.002;6.506;2023-05-06T00:11:41;12.50;99.90
64715;DHT22;51144;53.002;6.506;2023-05-06T00:14:06;12.40;99.90
64715;DHT22;51144;53.002;6.506;2023-05-06T00:16:32;12.30;99.90
64715;DHT22;51144;53.002;6.506;2023-05-06T00:18:57;12.30;99.90
64715;DHT22;51144;53.002;6.506;2023-05-06T00:21:23;12.20;99.90
64715;DHT22;51144;53.002;6.506;2023-05-06T00:23:49;12.20;99.90
64715;DHT22;51144;53.002;6.506;2023-05-06T00:26:14;12.10;99.90
64715;DHT22;51144;53.002;6.506;2023-05-06T00:28:40;12.10;99.90
64715;DHT22;51144;53.002;6.506;2023-05-06T00:31:06;12.10;99.90
64715;DHT22;51144;53.002;6.506;2023-05-06T00:33:31;12.10;99.90
64715;DHT22;51144;53.002;6.506;2023-05-06T00:35:57;12.00;99.90
64715;DHT22;51144;53.002;6.506;2023-05-06T00:38:22;12.00;99.90
64715;DHT22;51144;53.002;6.506;2023-05-06T00:40:48;12.00;99.90
64715;DHT22;51144;53.002;6.506;2023-05-06T00:43:15;12.00;99.90
64715;DHT22;51144;53.002;6.506;2023-05-06T00:45:40;12.00;99.90
64715;DHT22;51144;53.002;6.506;2023-05-06T00:48:06;12.00;99.90
64715;DHT22;51144;53.002;6.506;2023-05-06T00:50:33;11.90;99.90
64715;DHT22;51144;53.002;6.506;2023-05-06T00:53:01;11.90;99.90
64715;DHT22;51144;53.002;6.506;2023-05-06T00:55:28;11.90;99.90
64715;DHT22;51144;53.002;6.506;2023-05-06T00:57:54;11.90;99.90
64715;DHT22;51144;53.002;6.506;2023-05-06T01:00:21;11.90;99.90
64715;DHT22;51144;53.002;6.506;2023-05-06T01:02:47;11.90;99.90
64715;DHT22;51144;53.002;6.506;2023-05-06T01:05:15;11.80;99.90
64715;DHT22;51144;53.002;6.506;2023-05-06T01:10:15;11.90;99.90
64715;DHT22;51144;53.002;6.506;2023-05-06T01:18:00;11.90;99.90
64715;DHT22;51144;53.002;6.506;2023-05-06T01:20:28;11.90;99.90
64715;DHT22;51144;53.002;6.506;2023-05-06T01:22:56;12.00;99.90
64715;DHT22;51144;53.002;6.506;2023-05-06T01:25:22;12.00;99.90
64715;DHT22;51144;53.002;6.506;2023-05-06T01:27:50;12.00;99.90
64715;DHT22;51144;53.002;6.506;2023-05-06T01:30:17;12.00;99.90
64715;DHT22;51144;53.002;6.506;2023-05-06T01:40:30;11.80;99.90
64715;DHT22;51144;53.002;6.506;2023-05-06T01:42:59;11.80;99.90
64715;DHT22;51144;53.002;6.506;2023-05-06T01:45:27;11.80;99.90
64715;DHT22;51144;53.002;6.506;2023-05-06T01:47:54;11.70;99.90
64715;DHT22;51144;53.002;6.506;2023-05-06T01:50:20;11.70;99.90
64715;DHT22;51144;53.002;6.506;2023-05-06T01:52:57;11.70;99.90
64715;DHT22;51144;53.002;6.506;2023-05-06T01:55:23;11.60;99.90
64715;DHT22;51144;53.002;6.506;2023-05-06T01:57:49;11.60;99.90
64715;DHT22;51144;53.002;6.506;2023-05-06T02:00:14;11.60;99.90
64715;DHT22;51144;53.002;6.506;2023-05-06T02:02:40;11.60;99.90
64715;DHT22;51144;53.002;6.506;2023-05-06T02:05:06;11.60;99.90
64715;DHT22;51144;53.002;6.506;2023-05-06T02:07:32;11.60;99.90
64715;DHT22;51144;53.002;6.506;2023-05-06T02:09:57;11.60;99.90
64715;DHT22;51144;53.002;6.506;2023-05-06T02:12:23;11.50;99.90
64715;DHT22;51144;53.002;6.506;2023-05-06T02:14:48;11.50;99.90
64715;DHT22;51144;53.002;6.506;2023-05-06T02:17:14;11.50;99.90
64715;DHT22;51144;53.002;6.506;2023-05-06T02:19:40;11.50;99.90
64715;DHT22;51144;53.002;6.506;2023-05-06T02:22:05;11.50;99.90
64715;DHT22;51144;53.002;6.506;2023-05-06T02:24:31;11.50;99.90
64715;DHT22;51144;53.002;6.506;2023-05-06T02:26:56;11.50;99.90
64715;DHT22;51144;53.002;6.506;2023-05-06T02:29:22;11.50;99.90
64715;DHT22;51144;53.002;6.506;2023-05-06T02:31:47;11.50;99.90
64715;DHT22;51144;53.002;6.506;2023-05-06T02:34:14;11.40;99.90
64715;DHT22;51144;53.002;6.506;2023-05-06T02:36:40;11.50;99.90
64715;DHT22;51144;53.002;6.506;2023-05-06T02:39:06;11.50;99.90
64715;DHT22;51144;53.002;6.506;2023-05-06T02:41:31;11.50;99.90
64715;DHT22;51144;53.002;6.506;2023-05-06T02:43:57;11.50;99.90
64715;DHT22;51144;53.002;6.506;2023-05-06T02:46:22;11.50;99.90
64715;DHT22;51144;53.002;6.506;2023-05-06T02:48:48;11.50;99.90
64715;DHT22;51144;53.002;6.506;2023-05-06T02:51:13;11.40;99.90
64715;DHT22;51144;53.002;6.506;2023-05-06T02:53:39;11.40;99.90
64715;DHT22;51144;53.002;6.506;2023-05-06T02:56:04;11.40;99.90
64715;DHT22;51144;53.002;6.506;2023-05-06T02:58:30;11.40;99.90
64715;DHT22;51144;53.002;6.506;2023-05-06T03:00:55;11.20;99.90
64715;DHT22;51144;53.002;6.506;2023-05-06T03:03:21;11.10;99.90
64715;DHT22;51144;53.002;6.506;2023-05-06T03:05:47;11.10;99.90
64715;DHT22;51144;53.002;6.506;2023-05-06T03:08:12;11.00;99.90
64715;DHT22;51144;53.002;6.506;2023-05-06T03:10:37;11.00;99.90
64715;DHT22;51144;53.002;6.506;2023-05-06T03:13:03;11.00;99.90
64715;DHT22;51144;53.002;6.506;2023-05-06T03:15:29;10.90;99.90
64715;DHT22;51144;53.002;6.506;2023-05-06T03:17:54;10.90;99.90
64715;DHT22;51144;53.002;6.506;2023-05-06T03:20:20;10.90;99.90
64715;DHT22;51144;53.002;6.506;2023-05-06T03:22:45;10.90;99.90
64715;DHT22;51144;53.002;6.506;2023-05-06T03:25:11;10.90;99.90
64715;DHT22;51144;53.002;6.506;2023-05-06T03:27:36;10.90;99.90
64715;DHT22;51144;53.002;6.506;2023-05-06T03:30:02;10.90;99.90
64715;DHT22;51144;53.002;6.506;2023-05-06T03:32:28;10.90;99.90
64715;DHT22;51144;53.002;6.506;2023-05-06T03:34:55;10.90;99.90
64715;DHT22;51144;53.002;6.506;2023-05-06T03:37:20;10.90;99.90
64715;DHT22;51144;53.002;6.506;2023-05-06T03:39:46;10.80;99.90
64715;DHT22;51144;53.002;6.506;2023-05-06T03:42:11;10.80;99.90
64715;DHT22;51144;53.002;6.506;2023-05-06T03:44:37;10.70;99.90
64715;DHT22;51144;53.002;6.506;2023-05-06T03:47:02;10.60;99.90
64715;DHT22;51144;53.002;6.506;2023-05-06T03:49:28;10.60;99.90
64715;DHT22;51144;53.002;6.506;2023-05-06T03:51:53;10.60;99.90
64715;DHT22;51144;53.002;6.506;2023-05-06T03:54:19;10.60;99.90
64715;DHT22;51144;53.002;6.506;2023-05-06T03:56:44;10.60;99.90
64715;DHT22;51144;53.002;6.506;2023-05-06T03:59:10;10.60;99.90
64715;DHT22;51144;53.002;6.506;2023-05-06T04:01:35;10.50;99.90
64715;DHT22;51144;53.002;6.506;2023-05-06T04:04:01;10.60;99.90
64715;DHT22;51144;53.002;6.506;2023-05-06T04:06:26;10.50;99.90
64715;DHT22;51144;53.002;6.506;2023-05-06T04:08:52;10.50;99.90
64715;DHT22;51144;53.002;6.506;2023-05-06T04:11:17;10.50;99.90
64715;DHT22;51144;53.002;6.506;2023-05-06T04:13:43;10.50;99.90
64715;DHT22;51144;53.002;6.506;2023-05-06T04:16:08;10.50;99.90
64715;DHT22;51144;53.002;6.506;2023-05-06T04:18:34;10.50;99.90
64715;DHT22;51144;53.002;6.506;2023-05-06T04:21:00;10.50;99.90
64715;DHT22;51144;53.002;6.506;2023-05-06T04:23:25;10.50;99.90
64715;DHT22;51144;53.002;6.506;2023-05-06T04:25:51;10.50;99.90
64715;DHT22;51144;53.002;6.506;2023-05-06T04:28:17;10.50;99.90
64715;DHT22;51144;53.002;6.506;2023-05-06T04:30:42;10.40;99.90
64715;DHT22;51144;53.002;6.506;2023-05-06T04:33:08;10.50;99.90
64715;DHT22;51144;53.002;6.506;2023-05-06T04:35:34;10.50;99.90
64715;DHT22;51144;53.002;6.506;2023-05-06T04:37:59;10.60;99.90
64715;DHT22;51144;53.002;6.506;2023-05-06T04:40:26;10.60;99.90
64715;DHT22;51144;53.002;6.506;2023-05-06T04:42:52;10.70;99.90
64715;DHT22;51144;53.002;6.506;2023-05-06T04:45:17;10.70;99.90
64715;DHT22;51144;53.002;6.506;2023-05-06T04:47:43;10.70;99.90
64715;DHT22;51144;53.002;6.506;2023-05-06T04:50:08;10.80;99.90
64715;DHT22;51144;53.002;6.506;2023-05-06T04:52:34;10.80;99.90
64715;DHT22;51144;53.002;6.506;2023-05-06T04:55:00;10.80;99.90
64715;DHT22;51144;53.002;6.506;2023-05-06T04:57:26;10.90;99.90
64715;DHT22;51144;53.002;6.506;2023-05-06T04:59:51;11.00;99.90
64715;DHT22;51144;53.002;6.506;2023-05-06T05:02:17;11.10;99.90
64715;DHT22;51144;53.002;6.506;2023-05-06T05:04:42;11.20;99.90
64715;DHT22;51144;53.002;6.506;2023-05-06T05:07:08;11.30;99.90
64715;DHT22;51144;53.002;6.506;2023-05-06T05:09:33;11.40;99.90
64715;DHT22;51144;53.002;6.506;2023-05-06T05:12:02;11.40;99.90
64715;DHT22;51144;53.002;6.506;2023-05-06T05:14:28;11.50;99.90
64715;DHT22;51144;53.002;6.506;2023-05-06T05:16:53;11.50;99.90
64715;DHT22;51144;53.002;6.506;2023-05-06T05:19:19;11.60;99.90
64715;DHT22;51144;53.002;6.506;2023-05-06T05:21:45;11.60;99.90
64715;DHT22;51144;53.002;6.506;2023-05-06T05:24:11;11.60;99.90
64715;DHT22;51144;53.002;6.506;2023-05-06T05:26:36;11.60;99.90
64715;DHT22;51144;53.002;6.506;2023-05-06T05:29:02;11.50;99.90
64715;DHT22;51144;53.002;6.506;2023-05-06T05:31:27;11.50;99.90
64715;DHT22;51144;53.002;6.506;2023-05-06T05:33:55;11.50;99.90
64715;DHT22;51144;53.002;6.506;2023-05-06T05:36:21;11.50;99.90
64715;DHT22;51144;53.002;6.506;2023-05-06T05:38:46;11.50;99.90
64715;DHT22;51144;53.002;6.506;2023-05-06T05:41:12;11.40;99.90
64715;DHT22;51144;53.002;6.506;2023-05-06T05:43:37;11.50;99.90
64715;DHT22;51144;53.002;6.506;2023-05-06T05:46:03;11.50;99.90
64715;DHT22;51144;53.002;6.506;2023-05-06T05:48:28;11.50;99.90
64715;DHT22;51144;53.002;6.506;2023-05-06T05:50:57;11.60;99.90
64715;DHT22;51144;53.002;6.506;2023-05-06T05:53:22;11.60;99.90
64715;DHT22;51144;53.002;6.506;2023-05-06T05:55:48;11.70;99.90
64715;DHT22;51144;53.002;6.506;2023-05-06T05:58:14;11.90;99.90
64715;DHT22;51144;53.002;6.506;2023-05-06T06:00:39;12.00;99.90
64715;DHT22;51144;53.002;6.506;2023-05-06T06:03:05;12.20;99.90
64715;DHT22;51144;53.002;6.506;2023-05-06T06:05:31;12.30;99.90
64715;DHT22;51144;53.002;6.506;2023-05-06T06:07:57;12.30;99.90
64715;DHT22;51144;53.002;6.506;2023-05-06T06:10:22;12.30;99.90
64715;DHT22;51144;53.002;6.506;2023-05-06T06:12:48;12.40;99.90
64715;DHT22;51144;53.002;6.506;2023-05-06T06:15:13;12.40;99.90
64715;DHT22;51144;53.002;6.506;2023-05-06T06:17:39;12.50;99.90
64715;DHT22;51144;53.002;6.506;2023-05-06T06:20:05;12.60;99.90
64715;DHT22;51144;53.002;6.506;2023-05-06T06:22:31;12.80;99.90
64715;DHT22;51144;53.002;6.506;2023-05-06T06:24:56;13.00;99.90
64715;DHT22;51144;53.002;6.506;2023-05-06T06:27:22;13.10;99.90
64715;DHT22;51144;53.002;6.506;2023-05-06T06:29:47;13.10;99.90
64715;DHT22;51144;53.002;6.506;2023-05-06T06:32:16;13.30;99.90
64715;DHT22;51144;53.002;6.506;2023-05-06T06:34:41;13.60;99.90
64715;DHT22;51144;53.002;6.506;2023-05-06T06:37:08;13.80;99.90
64715;DHT22;51144;53.002;6.506;2023-05-06T06:39:34;14.00;99.90
64715;DHT22;51144;53.002;6.506;2023-05-06T06:41:59;14.30;99.90
64715;DHT22;51144;53.002;6.506;2023-05-06T06:44:29;14.40;99.90
64715;DHT22;51144;53.002;6.506;2023-05-06T06:46:54;14.20;99.90
64715;DHT22;51144;53.002;6.506;2023-05-06T06:49:19;14.00;99.90
64715;DHT22;51144;53.002;6.506;2023-05-06T06:51:45;13.90;99.90
64715;DHT22;51144;53.002;6.506;2023-05-06T06:54:10;13.80;99.90
64715;DHT22;51144;53.002;6.506;2023-05-06T06:56:36;13.80;99.90
64715;DHT22;51144;53.002;6.506;2023-05-06T06:59:01;13.80;99.90
64715;DHT22;51144;53.002;6.506;2023-05-06T07:01:27;13.70;99.90
64715;DHT22;51144;53.002;6.506;2023-05-06T07:03:53;13.70;99.90
64715;DHT22;51144;53.002;6.506;2023-05-06T07:06:18;13.70;99.90
64715;DHT22;51144;53.002;6.506;2023-05-06T07:08:44;13.70;99.90
64715;DHT22;51144;53.002;6.506;2023-05-06T07:11:10;13.70;99.90
64715;DHT22;51144;53.002;6.506;2023-05-06T07:13:35;13.70;99.90
64715;DHT22;51144;53.002;6.506;2023-05-06T07:16:01;13.80;99.90
64715;DHT22;51144;53.002;6.506;2023-05-06T07:18:26;13.80;99.90
64715;DHT22;51144;53.002;6.506;2023-05-06T07:20:52;14.00;99.90
64715;DHT22;51144;53.002;6.506;2023-05-06T07:23:17;14.10;99.90
64715;DHT22;51144;53.002;6.506;2023-05-06T07:25:43;14.40;99.90
64715;DHT22;51144;53.002;6.506;2023-05-06T07:28:08;14.70;99.90
64715;DHT22;51144;53.002;6.506;2023-05-06T07:30:36;15.10;99.90
64715;DHT22;51144;53.002;6.506;2023-05-06T07:33:01;15.40;99.90
64715;DHT22;51144;53.002;6.506;2023-05-06T07:35:27;15.70;99.90
64715;DHT22;51144;53.002;6.506;2023-05-06T07:37:52;16.00;99.90
64715;DHT22;51144;53.002;6.506;2023-05-06T07:40:18;16.10;99.90
64715;DHT22;51144;53.002;6.506;2023-05-06T07:42:43;16.00;99.90
64715;DHT22;51144;53.002;6.506;2023-05-06T07:45:09;16.00;99.90
64715;DHT22;51144;53.002;6.506;2023-05-06T07:47:35;16.00;99.90
64715;DHT22;51144;53.002;6.506;2023-05-06T07:50:00;16.00;99.90
64715;DHT22;51144;53.002;6.506;2023-05-06T07:52:26;16.00;99.90
64715;DHT22;51144;53.002;6.506;2023-05-06T07:54:53;16.10;99.90
64715;DHT22;51144;53.002;6.506;2023-05-06T07:57:18;16.40;99.90
64715;DHT22;51144;53.002;6.506;2023-05-06T07:59:47;16.70;99.90
64715;DHT22;51144;53.002;6.506;2023-05-06T08:02:13;17.10;99.90
64715;DHT22;51144;53.002;6.506;2023-05-06T08:04:39;17.40;99.90
64715;DHT22;51144;53.002;6.506;2023-05-06T08:07:05;17.40;99.90
64715;DHT22;51144;53.002;6.506;2023-05-06T08:09:31;17.70;99.90
64715;DHT22;51144;53.002;6.506;2023-05-06T08:11:57;18.00;99.90
64715;DHT22;51144;53.002;6.506;2023-05-06T08:14:23;18.20;99.90
64715;DHT22;51144;53.002;6.506;2023-05-06T08:16:50;18.50;99.90
64715;DHT22;51144;53.002;6.506;2023-05-06T08:19:16;18.90;99.90
64715;DHT22;51144;53.002;6.506;2023-05-06T08:21:41;19.20;99.90
64715;DHT22;51144;53.002;6.506;2023-05-06T08:24:07;19.30;99.90
64715;DHT22;51144;53.002;6.506;2023-05-06T08:26:33;19.10;99.90
64715;DHT22;51144;53.002;6.506;2023-05-06T08:28:58;19.10;99.90
64715;DHT22;51144;53.002;6.506;2023-05-06T08:31:24;19.30;99.90
64715;DHT22;51144;53.002;6.506;2023-05-06T08:33:49;19.30;99.90
64715;DHT22;51144;53.002;6.506;2023-05-06T08:36:15;19.60;99.90
64715;DHT22;51144;53.002;6.506;2023-05-06T08:38:41;19.80;99.90
64715;DHT22;51144;53.002;6.506;2023-05-06T08:41:13;19.70;99.90
64715;DHT22;51144;53.002;6.506;2023-05-06T08:43:41;19.70;99.90
64715;DHT22;51144;53.002;6.506;2023-05-06T08:46:07;19.90;99.90
64715;DHT22;51144;53.002;6.506;2023-05-06T08:48:33;20.00;99.90
64715;DHT22;51144;53.002;6.506;2023-05-06T08:50:59;19.80;99.90
64715;DHT22;51144;53.002;6.506;2023-05-06T08:53:27;19.90;99.90
64715;DHT22;51144;53.002;6.506;2023-05-06T08:55:53;20.20;99.90
64715;DHT22;51144;53.002;6.506;2023-05-06T08:58:19;20.20;99.90
64715;DHT22;51144;53.002;6.506;2023-05-06T09:00:45;20.30;99.90
64715;DHT22;51144;53.002;6.506;2023-05-06T09:03:11;20.50;99.90
64715;DHT22;51144;53.002;6.506;2023-05-06T09:05:37;20.50;99.90
64715;DHT22;51144;53.002;6.506;2023-05-06T09:08:02;20.50;99.90
64715;DHT22;51144;53.002;6.506;2023-05-06T09:10:36;20.40;99.90
64715;DHT22;51144;53.002;6.506;2023-05-06T09:13:02;20.40;99.90
64715;DHT22;51144;53.002;6.506;2023-05-06T09:15:38;20.50;99.90
64715;DHT22;51144;53.002;6.506;2023-05-06T09:18:05;20.60;99.90
64715;DHT22;51144;53.002;6.506;2023-05-06T09:20:32;20.90;99.90
64715;DHT22;51144;53.002;6.506;2023-05-06T09:22:58;21.10;99.90
64715;DHT22;51144;53.002;6.506;2023-05-06T09:25:26;21.40;99.90
64715;DHT22;51144;53.002;6.506;2023-05-06T09:28:02;21.50;99.90
64715;DHT22;51144;53.002;6.506;2023-05-06T09:30:29;21.80;99.90
64715;DHT22;51144;53.002;6.506;2023-05-06T09:32:55;22.00;99.90
64715;DHT22;51144;53.002;6.506;2023-05-06T09:35:26;22.10;99.90
64715;DHT22;51144;53.002;6.506;2023-05-06T09:37:52;22.30;99.90
64715;DHT22;51144;53.002;6.506;2023-05-06T09:40:18;22.30;99.90
64715;DHT22;51144;53.002;6.506;2023-05-06T09:42:44;22.40;99.90
64715;DHT22;51144;53.002;6.506;2023-05-06T09:45:10;22.10;99.90
64715;DHT22;51144;53.002;6.506;2023-05-06T09:47:35;22.10;99.90
64715;DHT22;51144;53.002;6.506;2023-05-06T09:50:02;22.00;99.90
64715;DHT22;51144;53.002;6.506;2023-05-06T09:52:29;22.40;99.90
64715;DHT22;51144;53.002;6.506;2023-05-06T09:54:56;22.70;99.90
64715;DHT22;51144;53.002;6.506;2023-05-06T09:57:22;22.70;99.90
64715;DHT22;51144;53.002;6.506;2023-05-06T09:59:49;22.30;99.90
64715;DHT22;51144;53.002;6.506;2023-05-06T10:02:18;22.20;99.90
64715;DHT22;51144;53.002;6.506;2023-05-06T10:04:43;22.10;99.90
64715;DHT22;51144;53.002;6.506;2023-05-06T10:07:10;22.00;99.90
64715;DHT22;51144;53.002;6.506;2023-05-06T10:09:40;21.80;99.90
64715;DHT22;51144;53.002;6.506;2023-05-06T10:12:06;21.50;99.90
64715;DHT22;51144;53.002;6.506;2023-05-06T10:14:34;21.50;99.90
64715;DHT22;51144;53.002;6.506;2023-05-06T10:17:02;21.60;99.90
64715;DHT22;51144;53.002;6.506;2023-05-06T10:19:31;21.90;99.90
64715;DHT22;51144;53.002;6.506;2023-05-06T10:24:53;22.00;99.90
64715;DHT22;51144;53.002;6.506;2023-05-06T10:27:22;22.10;99.90
64715;DHT22;51144;53.002;6.506;2023-05-06T10:29:52;22.00;99.90
64715;DHT22;51144;53.002;6.506;2023-05-06T10:32:25;22.00;99.90
64715;DHT22;51144;53.002;6.506;2023-05-06T10:34:55;22.00;99.90
64715;DHT22;51144;53.002;6.506;2023-05-06T10:37:25;22.00;99.90
64715;DHT22;51144;53.002;6.506;2023-05-06T10:39:53;22.30;99.90
64715;DHT22;51144;53.002;6.506;2023-05-06T10:42:19;22.60;99.90
64715;DHT22;51144;53.002;6.506;2023-05-06T10:45:01;22.80;99.90
64715;DHT22;51144;53.002;6.506;2023-05-06T10:47:43;22.80;99.90
64715;DHT22;51144;53.002;6.506;2023-05-06T10:50:20;22.20;99.90
64715;DHT22;51144;53.002;6.506;2023-05-06T10:52:49;21.50;99.90
64715;DHT22;51144;53.002;6.506;2023-05-06T10:57:55;21.20;99.90
64715;DHT22;51144;53.002;6.506;2023-05-06T11:00:21;21.10;99.90
64715;DHT22;51144;53.002;6.506;2023-05-06T11:02:55;20.90;99.90
64715;DHT22;51144;53.002;6.506;2023-05-06T11:05:21;20.80;99.90
64715;DHT22;51144;53.002;6.506;2023-05-06T11:07:49;20.70;99.90
64715;DHT22;51144;53.002;6.506;2023-05-06T11:10:30;20.60;99.90
64715;DHT22;51144;53.002;6.506;2023-05-06T11:12:56;20.60;99.90
64715;DHT22;51144;53.002;6.506;2023-05-06T11:15:38;20.60;99.90
64715;DHT22;51144;53.002;6.506;2023-05-06T11:26:08;20.60;99.90
64715;DHT22;51144;53.002;6.506;2023-05-06T11:28:34;20.60;99.90
64715;DHT22;51144;53.002;6.506;2023-05-06T11:31:00;20.70;99.90
64715;DHT22;51144;53.002;6.506;2023-05-06T11:33:31;20.80;99.90
64715;DHT22;51144;53.002;6.506;2023-05-06T11:35:58;21.20;99.90
64715;DHT22;51144;53.002;6.506;2023-05-06T11:38:25;21.50;99.90
64715;DHT22;51144;53.002;6.506;2023-05-06T11:40:51;21.90;99.90
64715;DHT22;51144;53.002;6.506;2023-05-06T11:43:16;22.10;99.90
64715;DHT22;51144;53.002;6.506;2023-05-06T11:45:46;22.20;99.90
64715;DHT22;51144;53.002;6.506;2023-05-06T11:48:16;22.30;99.90
64715;DHT22;51144;53.002;6.506;2023-05-06T11:50:46;22.30;99.90
64715;DHT22;51144;53.002;6.506;2023-05-06T11:53:18;22.30;99.90
64715;DHT22;51144;53.002;6.506;2023-05-06T11:55:46;21.80;99.90
64715;DHT22;51144;53.002;6.506;2023-05-06T11:58:25;21.60;99.90
64715;DHT22;51144;53.002;6.506;2023-05-06T12:00:56;21.50;99.90
64715;DHT22;51144;53.002;6.506;2023-05-06T12:03:23;21.80;99.90
64715;DHT22;51144;53.002;6.506;2023-05-06T12:05:49;22.10;99.90
64715;DHT22;51144;53.002;6.506;2023-05-06T12:08:21;22.30;99.90
64715;DHT22;51144;53.002;6.506;2023-05-06T12:10:51;22.00;99.90
64715;DHT22;51144;53.002;6.506;2023-05-06T12:13:17;21.80;99.90
64715;DHT22;51144;53.002;6.506;2023-05-06T12:15:44;21.90;99.90
64715;DHT22;51144;53.002;6.506;2023-05-06T12:18:11;21.90;99.90
64715;DHT22;51144;53.002;6.506;2023-05-06T12:20:37;22.10;99.90
64715;DHT22;51144;53.002;6.506;2023-05-06T12:23:07;21.90;99.90
64715;DHT22;51144;53.002;6.506;2023-05-06T12:25:33;21.70;99.90
64715;DHT22;51144;53.002;6.506;2023-05-06T12:27:59;21.70;99.90
64715;DHT22;51144;53.002;6.506;2023-05-06T12:30:31;21.70;99.90
64715;DHT22;51144;53.002;6.506;2023-05-06T12:32:59;21.60;99.90
64715;DHT22;51144;53.002;6.506;2023-05-06T12:35:30;21.70;99.90
64715;DHT22;51144;53.002;6.506;2023-05-06T12:37:56;21.50;99.90
64715;DHT22;51144;53.002;6.506;2023-05-06T12:40:31;20.80;99.90
64715;DHT22;51144;53.002;6.506;2023-05-06T12:42:57;19.80;99.90
64715;DHT22;51144;53.002;6.506;2023-05-06T12:45:23;19.80;99.90
64715;DHT22;51144;53.002;6.506;2023-05-06T12:47:54;19.70;99.90
64715;DHT22;51144;53.002;6.506;2023-05-06T12:50:38;19.40;99.90
64715;DHT22;51144;53.002;6.506;2023-05-06T12:53:04;19.00;99.90
64715;DHT22;51144;53.002;6.506;2023-05-06T12:55:31;18.70;99.90
64715;DHT22;51144;53.002;6.506;2023-05-06T12:57:57;18.40;99.90
64715;DHT22;51144;53.002;6.506;2023-05-06T13:00:22;18.00;99.90
64715;DHT22;51144;53.002;6.506;2023-05-06T13:02:48;17.70;99.90
64715;DHT22;51144;53.002;6.506;2023-05-06T13:05:14;17.60;99.90
64715;DHT22;51144;53.002;6.506;2023-05-06T13:07:40;17.40;99.90
64715;DHT22;51144;53.002;6.506;2023-05-06T13:10:06;17.30;99.90
64715;DHT22;51144;53.002;6.506;2023-05-06T13:12:32;17.40;99.90
64715;DHT22;51144;53.002;6.506;2023-05-06T13:14:58;17.20;99.90
64715;DHT22;51144;53.002;6.506;2023-05-06T13:17:24;17.10;99.90
64715;DHT22;51144;53.002;6.506;2023-05-06T13:19:51;17.00;99.90
64715;DHT22;51144;53.002;6.506;2023-05-06T13:22:18;16.90;99.90
64715;DHT22;51144;53.002;6.506;2023-05-06T13:24:44;16.70;99.90
64715;DHT22;51144;53.002;6.506;2023-05-06T13:27:10;16.60;99.90
64715;DHT22;51144;53.002;6.506;2023-05-06T13:29:36;16.60;99.90
64715;DHT22;51144;53.002;6.506;2023-05-06T13:32:02;16.50;99.90
64715;DHT22;51144;53.002;6.506;2023-05-06T13:34:28;16.30;99.90
64715;DHT22;51144;53.002;6.506;2023-05-06T13:36:54;16.00;99.90
64715;DHT22;51144;53.002;6.506;2023-05-06T13:39:21;16.00;99.90
64715;DHT22;51144;53.002;6.506;2023-05-06T13:41:47;15.70;99.90
64715;DHT22;51144;53.002;6.506;2023-05-06T13:44:17;15.60;99.90
64715;DHT22;51144;53.002;6.506;2023-05-06T13:46:43;15.50;99.90
64715;DHT22;51144;53.002;6.506;2023-05-06T13:49:09;15.60;99.90
64715;DHT22;51144;53.002;6.506;2023-05-06T13:51:34;15.40;99.90
64715;DHT22;51144;53.002;6.506;2023-05-06T13:54:01;15.30;99.90
64715;DHT22;51144;53.002;6.506;2023-05-06T13:56:27;15.20;99.90
64715;DHT22;51144;53.002;6.506;2023-05-06T13:58:53;15.00;99.90
64715;DHT22;51144;53.002;6.506;2023-05-06T14:01:25;15.00;99.90
64715;DHT22;51144;53.002;6.506;2023-05-06T14:03:51;14.90;99.90
64715;DHT22;51144;53.002;6.506;2023-05-06T14:06:17;15.00;99.90
64715;DHT22;51144;53.002;6.506;2023-05-06T14:08:43;15.10;99.90
64715;DHT22;51144;53.002;6.506;2023-05-06T14:11:08;15.10;99.90
64715;DHT22;51144;53.002;6.506;2023-05-06T14:13:34;15.20;99.90
64715;DHT22;51144;53.002;6.506;2023-05-06T14:16:00;15.30;99.90
64715;DHT22;51144;53.002;6.506;2023-05-06T14:18:26;15.60;99.90
64715;DHT22;51144;53.002;6.506;2023-05-06T14:20:52;15.70;99.90
64715;DHT22;51144;53.002;6.506;2023-05-06T14:23:18;15.80;99.90
64715;DHT22;51144;53.002;6.506;2023-05-06T14:25:44;15.70;99.90
64715;DHT22;51144;53.002;6.506;2023-05-06T14:28:09;15.80;99.90
64715;DHT22;51144;53.002;6.506;2023-05-06T14:30:36;15.90;99.90
64715;DHT22;51144;53.002;6.506;2023-05-06T14:33:02;15.90;99.90
64715;DHT22;51144;53.002;6.506;2023-05-06T14:35:28;15.70;99.90
64715;DHT22;51144;53.002;6.506;2023-05-06T14:37:53;15.60;99.90
64715;DHT22;51144;53.002;6.506;2023-05-06T14:40:19;15.60;99.90
64715;DHT22;51144;53.002;6.506;2023-05-06T14:42:45;15.60;99.90
64715;DHT22;51144;53.002;6.506;2023-05-06T14:45:11;15.60;99.90
64715;DHT22;51144;53.002;6.506;2023-05-06T14:47:38;15.50;99.90
64715;DHT22;51144;53.002;6.506;2023-05-06T14:50:06;15.50;99.90
64715;DHT22;51144;53.002;6.506;2023-05-06T14:52:34;15.40;99.90
64715;DHT22;51144;53.002;6.506;2023-05-06T14:55:01;15.40;99.90
64715;DHT22;51144;53.002;6.506;2023-05-06T14:57:26;15.30;99.90
64715;DHT22;51144;53.002;6.506;2023-05-06T14:59:52;15.30;99.90
64715;DHT22;51144;53.002;6.506;2023-05-06T15:02:18;15.40;99.90
64715;DHT22;51144;53.002;6.506;2023-05-06T15:04:43;15.40;99.90
64715;DHT22;51144;53.002;6.506;2023-05-06T15:07:10;15.30;99.90
64715;DHT22;51144;53.002;6.506;2023-05-06T15:09:36;15.40;99.90
64715;DHT22;51144;53.002;6.506;2023-05-06T15:12:04;15.50;99.90
64715;DHT22;51144;53.002;6.506;2023-05-06T15:14:31;15.60;99.90
64715;DHT22;51144;53.002;6.506;2023-05-06T15:16:56;15.80;99.90
64715;DHT22;51144;53.002;6.506;2023-05-06T15:19:22;15.90;99.90
64715;DHT22;51144;53.002;6.506;2023-05-06T15:21:48;16.10;99.90
64715;DHT22;51144;53.002;6.506;2023-05-06T15:24:13;16.10;99.90
64715;DHT22;51144;53.002;6.506;2023-05-06T15:26:39;16.10;99.90
64715;DHT22;51144;53.002;6.506;2023-05-06T15:29:04;16.20;99.90
64715;DHT22;51144;53.002;6.506;2023-05-06T15:31:31;16.20;99.90
64715;DHT22;51144;53.002;6.506;2023-05-06T15:33:57;16.10;99.90
64715;DHT22;51144;53.002;6.506;2023-05-06T15:36:23;16.20;99.90
64715;DHT22;51144;53.002;6.506;2023-05-06T15:41:18;16.30;99.90
64715;DHT22;51144;53.002;6.506;2023-05-06T15:43:44;16.30;99.90
64715;DHT22;51144;53.002;6.506;2023-05-06T15:46:10;16.20;99.90
64715;DHT22;51144;53.002;6.506;2023-05-06T15:48:36;16.40;99.90
64715;DHT22;51144;53.002;6.506;2023-05-06T15:51:01;16.40;99.90
64715;DHT22;51144;53.002;6.506;2023-05-06T15:53:27;16.30;99.90
64715;DHT22;51144;53.002;6.506;2023-05-06T15:55:55;16.20;99.90
64715;DHT22;51144;53.002;6.506;2023-05-06T15:58:21;16.10;99.90